Terminal Aerodrome Forecast
Issued by NWS Grand Forks, ND

Home | Current Version | Previous Version | Text Only | Print | Product List | Glossary Off
Versions: 1 2 3 4 5 6 7 8 9 10 11 12 13 14 15 16 17

000
FTUS43 KFGF 020500
TAFGFK
TAF
KGFK 020520Z 0206/0306 16008KT P6SM SCT250
     FM021500 18013G18KT P6SM SCT250
     FM021800 20016G25KT P6SM BKN250
     FM022200 20017G26KT P6SM VCSH BKN120
      TEMPO 0300/0304 -SHRA BKN080
     FM030400 29008KT P6SM BKN120=

USA.gov is the U.S. government's official web portal to all federal, state and local government web resources and services.